createdAt,value
2018-01-24T00:02:00.952Z,1.90
2018-01-24T00:04:29.198Z,1.90
2018-01-24T00:06:57.486Z,1.80
2018-01-24T00:09:25.743Z,2.00
2018-01-24T00:11:53.985Z,1.70
2018-01-24T00:14:22.271Z,1.60
2018-01-24T00:16:52.071Z,1.70
2018-01-24T00:19:20.347Z,1.97
2018-01-24T00:21:48.655Z,1.97
2018-01-24T00:24:16.959Z,1.70
2018-01-24T00:26:45.192Z,1.90
2018-01-24T00:29:13.444Z,2.10
2018-01-24T00:31:42.447Z,1.87
2018-01-24T00:34:11.473Z,1.77
2018-01-24T00:36:39.715Z,1.93
2018-01-24T00:39:07.984Z,1.80
2018-01-24T00:41:36.256Z,1.40
2018-01-24T00:44:04.526Z,1.70
2018-01-24T00:46:32.775Z,1.67
2018-01-24T00:49:01.031Z,1.53
2018-01-24T00:51:30.071Z,2.00
2018-01-24T00:53:58.338Z,1.77
2018-01-24T00:56:26.575Z,1.67
2018-01-24T00:58:55.621Z,1.83
2018-01-24T01:01:23.871Z,1.50
2018-01-24T01:03:52.905Z,1.80
2018-01-24T01:06:21.184Z,1.90
2018-01-24T01:08:49.558Z,2.17
2018-01-24T01:11:17.873Z,1.80
2018-01-24T01:13:46.123Z,1.43
2018-01-24T01:16:15.135Z,1.97
2018-01-24T01:18:44.162Z,1.90
2018-01-24T01:21:12.446Z,1.90
2018-01-24T01:23:40.690Z,1.60
2018-01-24T01:26:08.939Z,1.50
2018-01-24T01:28:37.220Z,2.23
2018-01-24T01:31:05.479Z,1.90
2018-01-24T01:33:34.530Z,1.80
2018-01-24T01:36:02.771Z,1.70
2018-01-24T01:38:31.040Z,1.73
2018-01-24T01:40:59.289Z,2.10
2018-01-24T01:43:27.530Z,1.70
2018-01-24T01:45:55.790Z,1.70
2018-01-24T01:48:32.712Z,1.40
2018-01-24T01:51:00.987Z,1.50
2018-01-24T01:53:29.234Z,1.60
2018-01-24T01:55:57.500Z,1.47
2018-01-24T01:58:26.520Z,1.80
2018-01-24T02:00:54.785Z,1.50
2018-01-24T02:03:23.065Z,1.70
2018-01-24T02:05:51.391Z,1.60
2018-01-24T02:08:20.430Z,1.40
2018-01-24T02:10:48.742Z,1.37
2018-01-24T02:13:17.016Z,1.47
2018-01-24T02:15:45.353Z,1.80
2018-01-24T02:18:13.550Z,1.40
2018-01-24T02:20:42.570Z,1.27
2018-01-24T02:23:10.814Z,1.30
2018-01-24T02:25:39.083Z,1.30
2018-01-24T02:28:07.358Z,1.53
2018-01-24T02:30:35.656Z,1.40
2018-01-24T02:33:03.896Z,1.50
2018-01-24T02:35:32.924Z,1.50
2018-01-24T02:38:01.183Z,1.40
2018-01-24T02:40:30.214Z,1.43
2018-01-24T02:42:58.451Z,1.40
2018-01-24T02:45:26.716Z,1.47
2018-01-24T02:47:54.972Z,1.33
2018-01-24T02:50:23.242Z,1.80
2018-01-24T02:52:52.334Z,1.70
2018-01-24T02:55:20.630Z,1.60
2018-01-24T02:57:48.937Z,1.10
2018-01-24T03:00:17.985Z,1.17
2018-01-24T03:02:46.243Z,1.60
2018-01-24T03:05:14.523Z,1.30
2018-01-24T03:07:43.539Z,1.20
2018-01-24T03:10:11.799Z,1.50
2018-01-24T03:12:41.173Z,1.57
2018-01-24T03:15:09.428Z,1.80
2018-01-24T03:17:38.468Z,1.53
2018-01-24T03:20:06.775Z,1.70
2018-01-24T03:22:35.042Z,1.53
2018-01-24T03:25:03.285Z,1.40
2018-01-24T03:27:32.315Z,1.30
2018-01-24T03:30:00.555Z,1.30
2018-01-24T03:32:28.824Z,1.33
2018-01-24T03:34:57.067Z,1.40
2018-01-24T03:37:26.094Z,1.60
2018-01-24T03:39:54.332Z,1.30
2018-01-24T03:42:22.639Z,1.20
2018-01-24T03:44:50.952Z,1.40
2018-01-24T03:47:19.327Z,1.33
2018-01-24T03:49:48.372Z,1.30
2018-01-24T03:52:16.658Z,1.37
2018-01-24T03:54:44.912Z,1.20
2018-01-24T03:57:13.936Z,1.20
2018-01-24T03:59:42.182Z,1.30
2018-01-24T04:02:10.439Z,1.10
2018-01-24T04:04:38.679Z,1.37
2018-01-24T04:07:07.727Z,1.03
2018-01-24T04:09:35.984Z,1.10
2018-01-24T04:12:05.065Z,1.40
2018-01-24T04:14:33.303Z,1.43
2018-01-24T04:17:01.563Z,1.37
2018-01-24T04:19:30.583Z,1.30
2018-01-24T04:21:59.600Z,1.20
2018-01-24T04:24:27.859Z,1.30
2018-01-24T04:26:56.119Z,1.20
2018-01-24T04:29:24.368Z,1.20
2018-01-24T04:31:52.723Z,1.20
2018-01-24T04:34:21.069Z,1.47
2018-01-24T04:36:49.355Z,1.50
2018-01-24T04:39:17.733Z,1.47
2018-01-24T04:41:46.004Z,1.20
2018-01-24T04:44:15.000Z,1.23
2018-01-24T04:46:44.015Z,1.57
2018-01-24T04:49:13.331Z,1.30
2018-01-24T04:51:42.626Z,1.30
2018-01-24T04:54:10.962Z,1.60
2018-01-24T04:56:39.970Z,1.47
2018-01-24T04:59:08.271Z,1.20
2018-01-24T05:01:36.861Z,1.50
2018-01-24T05:04:05.608Z,1.83
2018-01-24T05:06:33.916Z,1.50
2018-01-24T05:09:03.019Z,1.47
2018-01-24T05:11:32.354Z,1.33
2018-01-24T05:14:00.811Z,1.53
2018-01-24T05:16:29.059Z,1.67
2018-01-24T05:18:57.676Z,1.63
2018-01-24T05:21:32.432Z,1.53
2018-01-24T05:24:01.395Z,1.37
2018-01-24T05:26:30.055Z,1.60
2018-01-24T05:28:59.129Z,2.03
2018-01-24T05:31:27.555Z,1.23
2018-01-24T05:33:56.617Z,1.60
2018-01-24T05:36:25.083Z,1.47
2018-01-24T05:38:53.350Z,1.60
2018-01-24T05:41:22.413Z,1.60
2018-01-24T05:43:50.967Z,1.50
2018-01-24T05:46:20.242Z,1.80
2018-01-24T05:48:48.469Z,1.97
2018-01-24T05:51:16.706Z,1.63
2018-01-24T05:53:45.271Z,1.70
2018-01-24T05:56:13.549Z,1.60
2018-01-24T05:58:42.014Z,1.93
2018-01-24T06:01:11.514Z,1.40
2018-01-24T06:03:40.650Z,1.50
2018-01-24T06:06:10.077Z,1.80
2018-01-24T06:08:38.850Z,1.60
2018-01-24T06:11:07.474Z,1.50
2018-01-24T06:13:35.788Z,1.70
2018-01-24T06:16:04.089Z,1.50
2018-01-24T06:18:33.391Z,1.43
2018-01-24T06:21:01.973Z,1.40
2018-01-24T06:23:30.491Z,1.33
2018-01-24T06:25:58.938Z,1.50
2018-01-24T06:28:28.044Z,1.70
2018-01-24T06:30:56.585Z,1.67
2018-01-24T06:33:24.884Z,1.87
2018-01-24T06:35:53.763Z,1.90
2018-01-24T06:38:22.121Z,1.63
2018-01-24T06:40:51.167Z,1.67
2018-01-24T06:43:19.656Z,1.33
2018-01-24T06:45:47.931Z,1.60
2018-01-24T06:48:16.436Z,2.03
2018-01-24T06:50:44.977Z,1.63
2018-01-24T06:53:13.471Z,1.03
2018-01-24T06:55:41.926Z,1.60
2018-01-24T06:58:10.200Z,1.40
2018-01-24T07:00:38.792Z,1.63
2018-01-24T07:03:07.298Z,1.60
2018-01-24T07:05:36.314Z,1.60
2018-01-24T07:08:04.770Z,1.70
2018-01-24T07:10:33.068Z,1.87
2018-01-24T07:13:19.745Z,1.60
2018-01-24T07:15:48.024Z,1.80
2018-01-24T07:18:16.393Z,1.53
2018-01-24T07:20:44.770Z,1.47
2018-01-24T07:23:13.232Z,1.83
2018-01-24T07:25:41.566Z,1.70
2018-01-24T07:28:10.181Z,1.70
2018-01-24T07:30:38.492Z,1.77
2018-01-24T07:33:06.962Z,1.70
2018-01-24T07:35:35.231Z,1.60
2018-01-24T07:38:03.800Z,1.60
2018-01-24T07:40:33.520Z,1.60
2018-01-24T07:43:02.548Z,1.57
2018-01-24T07:45:31.252Z,1.60
2018-01-24T07:47:59.987Z,1.80
2018-01-24T07:50:28.770Z,1.70
2018-01-24T07:52:57.402Z,1.80
2018-01-24T07:55:25.743Z,1.80
2018-01-24T07:57:54.036Z,1.90
2018-01-24T08:00:22.427Z,1.77
2018-01-24T08:02:50.787Z,1.70
2018-01-24T08:05:20.029Z,1.87
2018-01-24T08:07:48.311Z,1.60
2018-01-24T08:10:16.903Z,1.80
2018-01-24T08:12:45.471Z,1.77
2018-01-24T08:15:14.780Z,1.47
2018-01-24T08:17:43.511Z,1.23
2018-01-24T08:20:12.026Z,1.10
2018-01-24T08:22:41.750Z,1.33
2018-01-24T08:25:10.143Z,1.30
2018-01-24T08:27:38.924Z,1.47
2018-01-24T08:30:07.225Z,1.10
2018-01-24T08:32:35.905Z,1.47
2018-01-24T08:35:04.159Z,1.40
2018-01-24T08:37:32.806Z,1.53
2018-01-24T08:40:01.253Z,1.37
2018-01-24T08:42:29.566Z,1.50
2018-01-24T08:44:59.014Z,1.40
2018-01-24T08:47:27.746Z,1.30
2018-01-24T08:49:56.014Z,1.40
2018-01-24T08:52:24.746Z,1.30
2018-01-24T08:54:52.994Z,1.27
2018-01-24T08:57:21.464Z,1.00
2018-01-24T09:00:13.208Z,1.03
2018-01-24T09:03:05.184Z,1.40
2018-01-24T09:05:56.698Z,1.07
2018-01-24T13:32:24.125Z,0.90
2018-01-24T13:34:52.418Z,1.17
2018-01-24T13:37:22.252Z,1.30
2018-01-24T13:39:50.596Z,0.90
2018-01-24T13:42:18.872Z,1.10
2018-01-24T13:44:47.164Z,1.00
2018-01-24T13:47:15.460Z,1.10
2018-01-24T13:49:43.749Z,1.00
2018-01-24T13:52:12.106Z,0.80
2018-01-24T13:54:41.218Z,1.10
2018-01-24T13:57:10.283Z,1.10
2018-01-24T13:59:40.552Z,1.13
2018-01-24T14:02:09.058Z,1.10
2018-01-24T14:04:38.350Z,0.83
2018-01-24T14:07:07.809Z,0.80
2018-01-24T14:09:37.348Z,0.90
2018-01-24T14:12:05.952Z,1.20
2018-01-24T14:14:34.485Z,1.00
2018-01-24T14:17:03.992Z,0.83
2018-01-24T14:19:32.689Z,1.07
2018-01-24T14:22:01.127Z,1.17
2018-01-24T14:24:34.148Z,1.00
2018-01-24T14:27:04.129Z,0.83
2018-01-24T14:29:33.613Z,0.93
2018-01-24T14:32:03.086Z,0.90
2018-01-24T14:34:31.713Z,1.00
2018-01-24T14:37:01.108Z,0.97
2018-01-24T14:39:29.514Z,0.90
2018-01-24T14:41:58.197Z,0.90
2018-01-24T14:44:26.677Z,1.03
2018-01-24T14:46:56.047Z,1.07
2018-01-24T14:49:24.639Z,1.40
2018-01-24T14:51:54.443Z,1.10
2018-01-24T14:54:23.174Z,1.00
2018-01-24T14:56:52.558Z,0.90
2018-01-24T14:59:21.420Z,0.83
2018-01-24T15:01:49.772Z,1.20
2018-01-24T15:04:18.380Z,0.90
2018-01-24T15:06:46.804Z,0.90
2018-01-24T15:09:16.484Z,1.30
2018-01-24T15:11:45.043Z,1.10
2018-01-24T15:14:13.755Z,1.10
2018-01-24T15:16:42.499Z,1.10
2018-01-24T15:19:11.268Z,1.00
2018-01-24T15:21:39.805Z,0.90
2018-01-24T15:24:08.208Z,1.00
2018-01-24T15:26:36.551Z,1.20
2018-01-24T15:29:04.850Z,1.03
2018-01-24T15:31:33.618Z,0.90
2018-01-24T15:34:02.128Z,0.97
2018-01-24T15:36:31.727Z,1.30
2018-01-24T15:39:00.031Z,1.07
2018-01-24T15:41:28.968Z,0.97
2018-01-24T15:43:57.700Z,1.00
2018-01-24T15:46:26.251Z,1.10
2018-01-24T15:48:55.394Z,1.30
2018-01-24T15:51:24.094Z,1.27
2018-01-24T15:53:52.916Z,1.10
2018-01-24T15:56:21.561Z,1.07
2018-01-24T15:58:49.970Z,1.20
2018-01-24T16:01:19.645Z,1.27
2018-01-24T16:03:48.494Z,1.20
2018-01-24T16:06:18.511Z,1.30
2018-01-24T16:08:48.305Z,1.27
2018-01-24T16:11:16.993Z,1.00
2018-01-24T16:13:46.087Z,1.10
2018-01-24T16:16:14.601Z,1.30
2018-01-24T16:18:43.300Z,1.40
2018-01-24T16:21:11.736Z,1.30
2018-01-24T16:23:40.559Z,1.23
2018-01-24T16:26:10.915Z,1.60
2018-01-24T16:28:39.547Z,1.47
2018-01-24T16:31:08.013Z,1.80
2018-01-24T16:33:36.938Z,1.40
2018-01-24T16:36:05.660Z,1.60
2018-01-24T16:38:34.402Z,1.47
2018-01-24T16:41:02.846Z,1.20
2018-01-24T16:43:31.499Z,1.53
2018-01-24T16:45:59.868Z,1.40
2018-01-24T16:48:31.397Z,1.30
2018-01-24T16:50:59.862Z,1.50
2018-01-24T16:53:28.450Z,1.40
2018-01-24T16:55:56.923Z,1.37
2018-01-24T16:58:25.471Z,1.40
2018-01-24T17:00:54.061Z,1.30
2018-01-24T17:03:22.829Z,1.27
2018-01-24T17:05:51.423Z,1.27
2018-01-24T17:08:19.997Z,1.33
2018-01-24T17:10:48.588Z,1.50
2018-01-24T17:13:16.983Z,1.30
2018-01-24T17:15:46.134Z,1.60
2018-01-24T17:18:14.545Z,1.47
2018-01-24T17:20:43.022Z,1.70
2018-01-24T17:23:11.771Z,1.37
2018-01-24T17:25:40.213Z,2.70
2018-01-24T17:28:09.410Z,2.03
2018-01-24T17:30:37.800Z,2.80
2018-01-24T17:33:06.895Z,3.30
2018-01-24T17:35:35.479Z,3.20
2018-01-24T17:38:04.262Z,3.17
2018-01-24T17:40:33.975Z,2.53
2018-01-24T17:43:02.390Z,2.70
2018-01-24T17:45:31.640Z,2.60
2018-01-24T17:48:00.137Z,2.40
2018-01-24T17:50:28.549Z,2.17
2018-01-24T17:52:57.206Z,2.57
2018-01-24T17:55:26.641Z,2.40
2018-01-24T17:57:55.238Z,2.33
2018-01-24T18:00:23.575Z,2.80
2018-01-24T18:02:52.454Z,2.43
2018-01-24T18:05:20.758Z,2.57
2018-01-24T18:07:49.076Z,3.33
2018-01-24T18:10:17.414Z,2.27
2018-01-24T18:12:45.748Z,2.40
2018-01-24T18:15:14.867Z,2.60
2018-01-24T18:17:44.055Z,2.67
2018-01-24T18:20:12.382Z,3.53
2018-01-24T18:22:40.712Z,2.97
2018-01-24T18:25:09.047Z,2.17
2018-01-24T18:27:38.185Z,2.17
2018-01-24T18:30:06.527Z,2.43
2018-01-24T18:32:35.639Z,2.23
2018-01-24T18:35:03.986Z,2.37
2018-01-24T18:37:32.295Z,1.77
2018-01-24T18:40:00.644Z,2.03
2018-01-24T18:42:28.972Z,2.17
2018-01-24T18:44:58.542Z,1.97
2018-01-24T18:47:27.639Z,1.70
2018-01-24T18:49:57.056Z,2.00
2018-01-24T18:52:25.432Z,2.20
2018-01-24T18:54:53.691Z,1.83
2018-01-24T18:57:22.018Z,1.70
2018-01-24T18:59:50.359Z,2.07
2018-01-24T19:02:19.554Z,7.60
2018-01-24T19:04:47.908Z,2.33
2018-01-24T19:07:17.000Z,1.87
2018-01-24T19:09:45.297Z,2.07
2018-01-24T19:12:13.701Z,2.17
2018-01-24T19:14:42.826Z,1.90
2018-01-24T19:17:11.890Z,2.00
2018-01-24T19:19:40.175Z,2.37
2018-01-24T19:22:08.493Z,2.17
2018-01-24T19:24:37.615Z,1.93
2018-01-24T19:27:06.659Z,1.80
2018-01-24T19:29:34.948Z,2.10
2018-01-24T19:32:03.249Z,2.10
2018-01-24T19:34:31.582Z,2.10
2018-01-24T19:37:00.677Z,1.97
2018-01-24T19:39:29.793Z,2.00
2018-01-24T19:41:58.092Z,1.90
2018-01-24T19:44:27.495Z,2.10
2018-01-24T19:46:56.585Z,1.97
2018-01-24T19:49:25.722Z,2.23
2018-01-24T19:51:54.749Z,2.00
2018-01-24T19:54:23.083Z,1.83
2018-01-24T19:56:51.392Z,2.00
2018-01-24T19:59:19.664Z,2.23
2018-01-24T20:01:48.804Z,2.03
2018-01-24T20:04:17.949Z,1.77
2018-01-24T20:06:46.262Z,2.13
2018-01-24T20:09:14.542Z,2.40
2018-01-24T20:11:42.890Z,2.60
2018-01-24T20:14:11.207Z,2.80
2018-01-24T20:16:39.515Z,2.50
2018-01-24T20:19:07.832Z,2.60
2018-01-24T20:21:36.182Z,2.60
2018-01-24T20:24:04.545Z,2.40
2018-01-24T20:26:33.791Z,2.27
2018-01-24T20:29:02.162Z,2.00
2018-01-24T20:31:30.523Z,2.00
2018-01-24T20:33:58.922Z,1.83
2018-01-24T20:36:27.230Z,2.20
2018-01-24T20:38:55.500Z,2.00
2018-01-24T20:41:23.760Z,1.87
2018-01-24T20:43:52.011Z,1.80
2018-01-24T20:46:20.333Z,1.80
2018-01-24T20:48:49.100Z,1.80
2018-01-24T20:51:17.565Z,2.10
2018-01-24T20:53:45.997Z,2.03
2018-01-24T20:56:14.471Z,1.70
2018-01-24T20:58:42.719Z,1.93
2018-01-24T21:01:11.771Z,1.87
2018-01-24T21:03:40.916Z,2.70
2018-01-24T21:06:09.192Z,2.67
2018-01-24T21:08:37.452Z,3.87
2018-01-24T21:11:05.838Z,3.23
2018-01-24T21:13:34.191Z,2.50
2018-01-24T21:16:03.253Z,2.00
2018-01-24T21:18:31.559Z,2.20
2018-01-24T21:20:59.885Z,2.10
2018-01-24T21:23:28.959Z,2.03
2018-01-24T21:25:57.284Z,1.80
2018-01-24T21:28:43.161Z,2.37
2018-01-24T21:31:29.352Z,2.10
2018-01-24T21:34:15.290Z,2.00
2018-01-24T21:36:58.428Z,1.93
2018-01-24T21:39:27.431Z,2.00
2018-01-24T21:41:56.464Z,1.77
2018-01-24T21:44:24.763Z,1.90
2018-01-24T21:46:53.076Z,1.90
2018-01-24T21:49:21.319Z,1.60
2018-01-24T21:51:50.428Z,1.67
2018-01-24T21:54:19.449Z,1.53
2018-01-24T21:56:47.793Z,1.70
2018-01-24T21:59:16.095Z,1.80
2018-01-24T22:01:44.430Z,1.70
2018-01-24T22:04:12.698Z,1.80
2018-01-24T22:06:41.729Z,1.80
2018-01-24T22:09:10.748Z,1.97
2018-01-24T22:11:39.053Z,1.70
2018-01-24T22:14:07.307Z,1.93
2018-01-24T22:16:35.574Z,1.83
2018-01-24T22:19:04.616Z,1.70
2018-01-24T22:21:33.128Z,1.60
2018-01-24T22:24:01.388Z,2.10
2018-01-24T22:26:29.668Z,1.77
2018-01-24T22:28:57.908Z,1.70
2018-01-24T22:31:26.178Z,2.00
2018-01-24T22:33:54.435Z,1.70
2018-01-24T22:36:22.715Z,1.80
2018-01-24T22:38:51.740Z,1.70
2018-01-24T22:41:20.776Z,1.93
2018-01-24T22:43:49.049Z,1.80
2018-01-24T22:46:17.346Z,1.57
2018-01-24T22:48:45.617Z,1.87
2018-01-24T22:51:13.939Z,2.00
2018-01-24T22:53:42.201Z,1.53
2018-01-24T22:56:10.491Z,1.80
2018-01-24T22:58:38.806Z,2.00
2018-01-24T23:01:07.049Z,1.60
2018-01-24T23:03:35.313Z,1.60
2018-01-24T23:06:03.570Z,1.50
2018-01-24T23:08:31.835Z,1.70
2018-01-24T23:11:00.079Z,2.00
2018-01-24T23:13:29.128Z,1.60
2018-01-24T23:15:57.364Z,1.87
2018-01-24T23:18:26.400Z,1.60
2018-01-24T23:20:54.647Z,1.90
2018-01-24T23:23:22.910Z,1.70
2018-01-24T23:25:51.151Z,1.70
2018-01-24T23:28:20.179Z,1.90
2018-01-24T23:30:48.468Z,1.50
2018-01-24T23:33:16.762Z,1.60
2018-01-24T23:35:45.040Z,1.70
2018-01-24T23:38:13.333Z,1.63
2018-01-24T23:40:41.579Z,1.93
2018-01-24T23:43:09.852Z,1.50
2018-01-24T23:45:38.122Z,1.50
2018-01-24T23:48:06.391Z,1.90
2018-01-24T23:50:34.669Z,1.80
2018-01-24T23:53:03.699Z,2.10
2018-01-24T23:55:31.947Z,1.80
2018-01-24T23:58:00.231Z,1.90
